Capitol Logistics 249


KMIA
Miami International Airport
Miami, Florida, US
KPVD
Theodore Francis Green State Airport
Providence, Rhode Island, US

Route Details

Aircraft Information
Primary: Boeing 767-300BDSF
Backup: Not Available
Route Data
Distance: 1053nm
Sched. Duration: 2h 54m
Avg. Duration: 2h 82m (+28m)
Times Flown: 7
Recm'd Route: VALLY2 VALLY WOLFO AR18 OZENA AR18 DIW J174 HTO JORDN2
Planned Altitude: 35,000ft
Origin Wx: KMIA 250920Z 07005KT 10SM -RA FEW018 SCT030 OVC075 24/23 A2985 RMK AO2 LTG DSNT E P0001 T02390233 $
Dest. Wx: KPVD 250851Z 35007KT 10SM CLR 06/01 A3014 RMK AO2 SLP206 T00610006 53019
Notes:

Financial History
Total Freight: 649,929lbs
Average Load: 92,847lbs/flt
Fuel Used: 209,136lbs
Avg. Fuel Used: 29,877lbs/flt
Fuel Expense: $257,237
Avg. Fuel Expense: $36,748
Avg. Fuel Cost: $1.23/lbs
Total Gross Income: $899,191
Pilot Pay: $1,303
Total Expenses: $97,477
Total Revenue: $539,389
Average Revenue: $128,455.92